Time;durP1;ratioP1;P1;durP2;ratioP2;P2;SDS_P1;SDS_P2;PMS_P1;PMS_P2;Temp;Humidity;BMP_temperature;BMP_pressure;BME280_temperature;BME280_humidity;BME280_pressure;Samples;Min_cycle;Max_cycle;Signal;HPM_P1;HPM_P2
2022/01/16 00:00:40;;;;;;;15.13;7.63;;;;;;;-9.04;64.11;96420.34;5023714;28;20041;-80
2022/01/16 00:05:52;;;;;;;11.32;6.90;;;;;;;-9.15;63.60;96410.50;5073527;28;20041;-81
2022/01/16 00:08:18;;;;;;;14.13;5.82;;;;;;;-9.07;63.99;96408.38;5072819;28;20129;-79
2022/01/16 00:10:44;;;;;;;12.90;6.28;;;;;;;-9.05;63.77;96416.91;5056107;28;20058;-81
2022/01/16 00:13:10;;;;;;;13.30;6.10;;;;;;;-9.20;63.62;96420.25;5074062;28;20058;-80
2022/01/16 00:15:36;;;;;;;10.52;6.35;;;;;;;-9.23;63.71;96424.72;5056358;28;20478;-80
2022/01/16 00:20:31;;;;;;;9.05;5.50;;;;;;;-9.39;63.42;96424.63;5072796;28;20507;-79
2022/01/16 00:22:58;;;;;;;9.23;6.20;;;;;;;-9.59;63.39;96426.41;5073981;28;20051;-81
2022/01/16 00:25:25;;;;;;;14.15;6.55;;;;;;;-9.61;63.34;96429.97;5055919;28;20040;-80
2022/01/16 00:27:51;;;;;;;10.65;6.03;;;;;;;-9.70;63.37;96433.84;5073308;28;20495;-80
2022/01/16 00:30:17;;;;;;;15.68;6.13;;;;;;;-9.74;63.27;96432.28;5056315;28;20403;-81
2022/01/16 00:32:43;;;;;;;15.60;6.78;;;;;;;-9.83;63.19;96435.28;5056130;28;20122;-79
2022/01/16 00:35:09;;;;;;;12.40;5.82;;;;;;;-9.90;62.78;96423.56;5072366;28;20044;-79
2022/01/16 00:37:35;;;;;;;8.85;5.40;;;;;;;-9.94;63.11;96433.19;5089472;28;20048;-80
2022/01/16 00:40:01;;;;;;;9.90;5.65;;;;;;;-9.96;62.82;96440.19;5073352;28;20060;-79
2022/01/16 00:42:27;;;;;;;11.15;5.60;;;;;;;-10.09;62.65;96429.53;5073740;28;20041;-81
2022/01/16 00:44:53;;;;;;;12.55;5.93;;;;;;;-10.03;62.98;96433.63;5073860;28;20052;-80
2022/01/16 00:47:19;;;;;;;10.88;6.85;;;;;;;-10.00;62.57;96437.78;5072309;28;20060;-81
2022/01/16 00:49:45;;;;;;;13.13;6.82;;;;;;;-10.06;61.88;96452.66;5073228;28;20135;-81
2022/01/16 00:52:11;;;;;;;9.45;5.47;;;;;;;-9.99;62.27;96475.66;5055348;28;20044;-80
2022/01/16 00:54:37;;;;;;;11.90;6.00;;;;;;;-9.96;61.90;96460.03;5055491;28;20040;-81
2022/01/16 00:57:04;;;;;;;15.32;7.72;;;;;;;-10.00;62.34;96456.72;5038363;28;20048;-80
2022/01/16 00:59:30;;;;;;;11.00;5.35;;;;;;;-10.05;61.58;96469.84;5072016;28;20506;-79
2022/01/16 01:01:56;;;;;;;12.48;6.35;;;;;;;-10.03;61.93;96475.78;5073408;28;20071;-81
2022/01/16 01:04:22;;;;;;;14.88;5.75;;;;;;;-10.00;61.57;96479.13;5073148;28;20103;-81
2022/01/16 01:06:50;;;;;;;11.57;6.00;;;;;;;-10.02;61.61;96480.03;5073120;28;20037;-80
2022/01/16 01:09:16;;;;;;;10.35;5.53;;;;;;;-10.02;61.66;96482.63;5055466;28;20055;-81
2022/01/16 01:11:45;;;;;;;14.48;6.25;;;;;;;-10.04;61.50;96479.28;5072524;28;20125;-79
2022/01/16 01:14:23;;;;;;;12.45;5.40;;;;;;;-10.11;61.66;96475.28;5056203;28;20587;-79
2022/01/16 01:16:54;;;;;;;15.93;6.47;;;;;;;-10.02;61.48;96492.97;5055192;28;20518;-80
2022/01/16 01:19:28;;;;;;;14.77;6.97;;;;;;;-9.86;61.70;96506.03;5071588;28;20048;-80
2022/01/16 01:21:55;;;;;;;14.07;5.80;;;;;;;-9.91;60.71;96494.22;5071645;28;20063;-81
2022/01/16 01:24:23;;;;;;;15.75;7.38;;;;;;;-9.83;61.11;96513.66;5072335;28;20044;-79
2022/01/16 01:29:29;;;;;;;13.77;6.63;;;;;;;-9.93;61.02;96521.88;5056795;28;20101;-80
2022/01/16 01:31:55;;;;;;;9.98;4.60;;;;;;;-9.89;60.74;96528.59;5038407;28;20049;-80
2022/01/16 01:34:21;;;;;;;10.52;5.00;;;;;;;-9.86;61.39;96542.22;5071708;28;20392;-79
2022/01/16 01:36:48;;;;;;;10.02;5.90;;;;;;;-9.85;61.00;96543.91;5088479;28;20048;-80
2022/01/16 01:39:18;;;;;;;10.85;6.25;;;;;;;-9.82;61.37;96530.00;5055308;28;20037;-81
2022/01/16 01:41:44;;;;;;;13.75;6.85;;;;;;;-9.76;60.97;96559.91;5022288;28;20055;-79
2022/01/16 01:52:24;;;;;;;11.98;6.07;;;;;;;-9.58;61.05;96580.63;5072661;28;20113;-80
2022/01/16 01:54:50;;;;;;;12.80;5.15;;;;;;;-9.75;60.42;96557.25;5071662;28;20131;-80
2022/01/16 01:57:16;;;;;;;14.73;6.45;;;;;;;-9.90;60.18;96551.00;5071469;28;20067;-80
2022/01/16 01:59:42;;;;;;;14.93;6.55;;;;;;;-9.95;60.56;96558.13;5054764;28;20044;-81
2022/01/16 02:02:08;;;;;;;10.15;5.20;;;;;;;-10.08;60.62;96547.50;5055267;28;20051;-80
2022/01/16 02:04:34;;;;;;;14.55;5.82;;;;;;;-10.07;60.76;96551.75;5071697;28;20040;-79
2022/01/16 02:07:00;;;;;;;11.30;6.47;;;;;;;-10.14;60.85;96550.31;5072759;28;20044;-81
2022/01/16 02:09:26;;;;;;;14.40;6.97;;;;;;;-10.19;60.98;96578.09;5057211;28;20118;-80
2022/01/16 02:11:53;;;;;;;11.52;5.85;;;;;;;-10.09;61.05;96574.22;5076396;28;20044;-80
2022/01/16 02:30:59;;;;;;;13.48;6.32;;;;;;;-10.00;61.32;96618.63;5059272;28;20067;-80
2022/01/16 02:34:30;;;;;;;12.70;6.30;;;;;;;-10.06;61.00;96620.59;5076758;28;20048;-82
2022/01/16 02:39:11;;;;;;;8.90;5.38;;;;;;;-10.08;61.20;96631.88;5059304;28;20061;-82
2022/01/16 02:41:37;;;;;;;12.90;5.70;;;;;;;-10.13;61.41;96603.66;5059140;28;20106;-82
2022/01/16 02:44:12;;;;;;;11.50;6.10;;;;;;;-10.09;61.07;96612.97;5041600;28;20083;-82
2022/01/16 02:46:39;;;;;;;12.88;6.53;;;;;;;-10.09;61.17;96625.88;5059276;28;20052;-82
2022/01/16 02:49:24;;;;;;;4.22;3.22;;;;;;;-10.13;61.24;96603.66;5075680;28;20044;-80
2022/01/16 02:51:54;;;;;;;14.45;6.15;;;;;;;-10.13;61.29;96577.81;5074824;28;20553;-82
2022/01/16 02:54:20;;;;;;;10.50;5.72;;;;;;;-10.10;61.22;96577.72;5024922;28;20411;-82
2022/01/16 02:56:48;;;;;;;15.32;5.47;;;;;;;-10.06;61.49;96573.25;5074633;28;20046;-80
2022/01/16 02:59:14;;;;;;;11.43;5.80;;;;;;;-10.22;60.84;96551.56;5074289;28;20044;-79
2022/01/16 03:01:40;;;;;;;15.52;6.70;;;;;;;-10.14;61.15;96576.16;5057742;28;20407;-78
2022/01/16 03:04:07;;;;;;;11.38;5.32;;;;;;;-10.20;61.15;96601.41;5057585;28;20144;-80
2022/01/16 03:06:33;;;;;;;13.25;6.55;;;;;;;-10.27;61.28;96564.69;5057902;28;20047;-80
2022/01/16 03:08:59;;;;;;;8.60;4.50;;;;;;;-10.36;61.33;96606.41;5057520;28;20048;-80
2022/01/16 03:11:35;;;;;;;12.75;6.05;;;;;;;-10.43;61.48;96616.13;5058162;28;20415;-79
2022/01/16 03:14:05;;;;;;;11.40;5.97;;;;;;;-10.32;61.64;96611.38;5043520;28;20036;-81
2022/01/16 03:16:31;;;;;;;19.50;6.38;;;;;;;-10.29;61.64;96654.31;5025283;28;20098;-81
2022/01/16 03:21:54;;;;;;;17.60;6.43;;;;;;;-10.34;61.73;96662.25;5075676;28;20040;-81
2022/01/16 03:24:21;;;;;;;;;;;;;;;-10.39;61.53;96645.25;5074956;28;20048;-81
2022/01/16 03:26:47;;;;;;;10.68;5.85;;;;;;;-10.41;62.03;96624.66;5074150;28;19920;-81
2022/01/16 03:29:13;;;;;;;11.43;5.45;;;;;;;-10.38;62.04;96610.78;5074806;28;20135;-82
2022/01/16 03:31:39;;;;;;;11.70;6.40;;;;;;;-10.38;61.94;96603.03;5095649;28;20099;-83
2022/01/16 03:34:05;;;;;;;15.15;7.75;;;;;;;-10.37;62.04;96604.72;5080398;28;20507;-81
2022/01/16 03:36:31;;;;;;;13.90;6.40;;;;;;;-10.42;61.96;96609.22;5025708;28;20036;-80
2022/01/16 03:38:56;;;;;;;12.00;6.18;;;;;;;-10.48;61.52;96617.22;5075003;28;20491;-82
2022/01/16 03:41:26;;;;;;;11.25;6.28;;;;;;;-10.58;61.50;96643.41;5056929;28;20553;-81
2022/01/16 03:43:55;;;;;;;17.27;6.97;;;;;;;-10.65;61.48;96657.44;5073419;28;20565;-82
2022/01/16 03:46:21;;;;;;;11.95;5.90;;;;;;;-10.65;61.70;96667.75;5056943;28;20450;-81
2022/01/16 03:48:46;;;;;;;8.57;4.78;;;;;;;-10.74;61.78;96669.88;5074884;28;20052;-81
2022/01/16 03:51:12;;;;;;;12.02;6.72;;;;;;;-10.83;61.53;96669.34;5074696;28;20052;-84
2022/01/16 03:53:38;;;;;;;13.15;6.45;;;;;;;-10.80;61.97;96676.09;5040551;28;20468;-82
2022/01/16 03:56:04;;;;;;;11.18;5.82;;;;;;;-10.82;62.00;96675.31;5090686;28;20408;-82
2022/01/16 03:58:30;;;;;;;9.60;5.35;;;;;;;-10.88;62.02;96683.28;5040440;28;20047;-82
2022/01/16 04:00:56;;;;;;;12.00;6.95;;;;;;;-10.85;62.46;96680.59;5057056;28;20040;-84
2022/01/16 04:03:22;;;;;;;13.20;6.65;;;;;;;-10.77;62.17;96676.81;5040653;28;20047;-83
2022/01/16 04:05:48;;;;;;;12.43;5.45;;;;;;;-10.83;61.84;96683.94;5039961;28;20059;-81
2022/01/16 04:08:14;;;;;;;9.30;5.05;;;;;;;-10.93;61.95;96687.78;5057851;28;20124;-83
2022/01/16 04:10:40;;;;;;;14.07;6.80;;;;;;;-11.09;62.43;96698.69;5093019;28;20083;-85
2022/01/16 04:13:08;;;;;;;15.75;6.30;;;;;;;-11.13;62.54;96697.09;5076109;28;20040;-82
2022/01/16 04:15:34;;;;;;;15.57;7.70;;;;;;;-11.11;62.57;96697.88;5075955;28;20044;-85
2022/01/16 04:18:01;;;;;;;11.32;5.82;;;;;;;-11.15;62.85;96693.72;5060657;28;20621;-86
2022/01/16 04:20:27;;;;;;;8.05;4.80;;;;;;;-11.16;63.02;96707.53;5042765;28;20032;-82
2022/01/16 04:22:53;;;;;;;8.18;4.70;;;;;;;-11.23;63.17;96700.06;5074263;28;20044;-82
2022/01/16 04:25:19;;;;;;;11.93;5.63;;;;;;;-11.23;63.26;96710.38;5025851;28;20041;-80
2022/01/16 04:27:45;;;;;;;16.63;6.25;;;;;;;-11.25;63.52;96719.00;5041011;28;20095;-81
2022/01/16 04:30:11;;;;;;;7.70;5.50;;;;;;;-11.19;63.11;96712.78;5073650;28;20057;-77
2022/01/16 04:32:37;;;;;;;12.02;5.32;;;;;;;-11.18;62.93;96724.78;5040927;28;20052;-83
2022/01/16 04:35:04;;;;;;;16.20;6.60;;;;;;;-11.14;62.66;96726.34;5024336;28;20036;-85
2022/01/16 04:37:30;;;;;;;13.40;6.25;;;;;;;-11.09;62.31;96724.47;5040273;28;20416;-82
2022/01/16 04:40:00;;;;;;;9.07;5.43;;;;;;;-11.06;62.26;96724.34;5074127;28;20098;-79
2022/01/16 04:45:11;;;;;;;11.82;5.60;;;;;;;-11.01;61.75;96722.44;5058918;28;20094;-81
2022/01/16 04:47:36;;;;;;;13.68;6.60;;;;;;;-10.94;61.77;96727.38;5073739;28;20067;-81
2022/01/16 04:50:03;;;;;;;11.48;6.22;;;;;;;-11.13;61.13;96738.38;5077233;28;20072;-81
2022/01/16 04:52:29;;;;;;;9.45;4.65;;;;;;;-11.15;61.22;96734.16;5044876;28;20048;-78
2022/01/16 04:54:55;;;;;;;6.88;4.38;;;;;;;-11.41;61.39;96743.66;5077929;28;20117;-79
2022/01/16 04:57:21;;;;;;;13.57;6.60;;;;;;;-11.34;62.15;96755.44;5027304;28;20098;-85
2022/01/16 04:59:47;;;;;;;10.23;5.80;;;;;;;-11.22;62.23;96756.72;5072270;28;20125;-81
2022/01/16 05:02:13;;;;;;;8.93;6.22;;;;;;;-11.10;62.02;96745.97;5055523;28;20130;-81
2022/01/16 05:04:39;;;;;;;9.57;5.90;;;;;;;-11.02;61.66;96741.41;5073631;28;20036;-78
2022/01/16 05:07:05;;;;;;;4.90;3.13;;;;;;;-11.12;63.27;96745.22;5072777;28;20496;-83
2022/01/16 05:09:32;;;;;;;14.18;6.53;;;;;;;-11.08;61.62;96751.09;5022568;28;20047;-78
2022/01/16 05:12:01;;;;;;;12.93;5.55;;;;;;;-11.27;60.89;96756.91;5073907;28;20075;-85
2022/01/16 05:17:11;;;;;;;7.40;4.60;;;;;;;-10.81;67.99;96757.00;5074323;28;20125;-86
2022/01/16 05:19:37;;;;;;;12.13;6.57;;;;;;;-10.82;62.71;96760.47;5041788;28;20491;-82
2022/01/16 05:22:04;;;;;;;8.32;4.85;;;;;;;-11.04;60.12;96753.50;5075157;28;20104;-86
2022/01/16 05:24:33;;;;;;;11.68;6.90;;;;;;;-11.28;60.65;96754.38;5057897;28;20048;-88
2022/01/16 05:27:05;;;;;;;5.18;3.95;;;;;;;-11.43;60.11;96771.22;5056884;28;20059;-83
2022/01/16 05:30:00;;;;;;;10.02;6.47;;;;;;;-11.92;60.91;96772.88;5059623;28;20511;-79
2022/01/16 05:32:26;;;;;;;7.60;4.25;;;;;;;-12.10;61.81;96784.59;5074679;28;20105;-78
2022/01/16 05:34:52;;;;;;;9.15;4.53;;;;;;;-11.94;61.95;96791.84;5092747;28;20036;-80
2022/01/16 05:37:18;;;;;;;19.02;6.38;;;;;;;-11.73;62.30;96804.03;5025570;28;20043;-84
2022/01/16 05:39:46;;;;;;;10.85;5.75;;;;;;;-11.54;61.44;96805.09;5091556;28;20056;-80
2022/01/16 05:42:13;;;;;;;14.73;6.22;;;;;;;-11.57;60.58;96812.09;5091107;28;20052;-81
2022/01/16 05:44:39;;;;;;;6.95;4.28;;;;;;;-11.55;60.55;96813.69;5079686;28;20044;-82
2022/01/16 05:47:06;;;;;;;13.40;6.28;;;;;;;-11.64;60.55;96810.59;5095599;28;20121;-79
2022/01/16 05:49:31;;;;;;;12.70;6.25;;;;;;;-11.63;60.91;96820.00;5095961;28;20063;-78
2022/01/16 05:51:57;;;;;;;10.30;5.65;;;;;;;-11.63;60.44;96820.84;5062178;28;20047;-81
2022/01/16 05:54:27;;;;;;;7.60;3.88;;;;;;;-11.47;60.30;96825.50;5079213;28;20036;-82
2022/01/16 05:56:59;;;;;;;21.50;6.90;;;;;;;-11.60;59.73;96835.38;5061661;28;20036;-81
2022/01/16 05:59:26;;;;;;;13.48;6.28;;;;;;;-11.56;60.20;96832.63;5095123;28;20503;-78
2022/01/16 06:01:52;;;;;;;12.13;7.03;;;;;;;-11.27;60.01;96838.56;5045093;28;20047;-83
2022/01/16 06:04:18;;;;;;;9.40;5.63;;;;;;;-11.30;59.54;96849.00;5044980;28;20039;-82
2022/01/16 06:06:44;;;;;;;7.22;4.38;;;;;;;-11.21;59.29;96863.31;5078735;28;20044;-75
2022/01/16 06:09:15;;;;;;;10.65;5.07;;;;;;;-11.46;59.45;96852.97;5078484;28;20044;-80
2022/01/16 06:11:41;;;;;;;12.82;6.78;;;;;;;-11.32;60.60;96853.34;5063073;28;20074;-80
2022/01/16 06:14:07;;;;;;;11.88;6.00;;;;;;;-11.22;59.70;96857.31;5078354;28;20048;-81
2022/01/16 06:16:35;;;;;;;27.95;8.77;;;;;;;-11.13;59.48;96862.19;5062179;28;20429;-82
2022/01/16 06:19:01;;;;;;;20.65;7.70;;;;;;;-11.06;58.91;96863.63;5074627;28;20119;-81
2022/01/16 06:21:29;;;;;;;13.73;7.13;;;;;;;-10.86;58.84;96869.88;5052512;28;20054;-83
2022/01/16 06:23:59;;;;;;;14.02;6.55;;;;;;;-10.95;58.23;96870.16;5061974;28;20044;-81
2022/01/16 06:26:25;;;;;;;21.92;8.93;;;;;;;-10.80;58.12;96869.63;5077727;28;20060;-80
2022/01/16 06:28:51;;;;;;;8.68;4.20;;;;;;;-10.95;57.20;96865.84;5061458;28;20151;-82
2022/01/16 06:31:17;;;;;;;9.25;4.32;;;;;;;-11.30;56.96;96874.78;5044988;28;20044;-84
2022/01/16 06:33:43;;;;;;;8.18;4.07;;;;;;;-11.64;57.76;96873.28;5044723;28;20052;-85
2022/01/16 06:36:09;;;;;;;14.27;5.50;;;;;;;-11.76;58.21;96874.50;5061263;28;20044;-86
2022/01/16 06:38:35;;;;;;;11.63;5.07;;;;;;;-11.64;58.89;96869.88;5061220;28;20048;-79
2022/01/16 06:41:02;;;;;;;10.82;5.80;;;;;;;-11.65;58.54;96899.94;5044708;28;20433;-80
2022/01/16 06:43:30;;;;;;;12.55;6.93;;;;;;;-11.48;59.09;96894.25;5078063;28;20387;-91
2022/01/16 06:45:56;;;;;;;11.53;6.37;;;;;;;-11.37;58.89;96899.06;5045173;28;20043;-81
2022/01/16 06:48:22;;;;;;;16.48;7.47;;;;;;;-11.10;58.99;96889.56;5077742;28;20298;-83
2022/01/16 06:50:48;;;;;;;9.30;5.45;;;;;;;-10.90;58.38;96888.94;5077289;28;20044;-80
2022/01/16 06:53:14;;;;;;;10.05;5.65;;;;;;;-11.02;57.78;96891.03;5095491;28;20043;-77
2022/01/16 06:55:40;;;;;;;13.20;6.40;;;;;;;-10.93;57.70;96901.94;5043507;28;20516;-78
2022/01/16 06:58:06;;;;;;;9.65;6.00;;;;;;;-10.93;57.73;96900.19;5058257;28;20136;-81
2022/01/16 07:00:33;;;;;;;14.38;6.25;;;;;;;-10.82;57.30;96899.81;5047172;28;20036;-81
2022/01/16 07:02:59;;;;;;;37.30;13.27;;;;;;;-9.98;66.44;96895.91;5024546;28;20033;-81
2022/01/16 07:05:24;;;;;;;6.38;4.82;;;;;;;-10.02;57.68;96896.03;5057234;28;20067;-81
2022/01/16 07:07:51;;;;;;;8.88;4.57;;;;;;;-10.26;57.01;96886.66;5073626;28;20131;-80
2022/01/16 07:10:18;;;;;;;17.27;7.43;;;;;;;-10.23;56.86;96899.38;5024265;28;20040;-79
2022/01/16 07:12:44;;;;;;;15.90;7.78;;;;;;;-9.99;57.33;96909.75;5040118;28;20052;-81
2022/01/16 07:15:11;;;;;;;20.27;8.38;;;;;;;-9.84;56.23;96910.00;5056843;28;20040;-81
2022/01/16 07:17:37;;;;;;;21.00;8.45;;;;;;;-9.95;55.89;96895.81;5024137;28;20044;-78
2022/01/16 07:20:03;;;;;;;14.65;6.75;;;;;;;-10.40;55.34;96899.22;5023760;28;20048;-80
2022/01/16 07:22:29;;;;;;;19.25;8.07;;;;;;;-10.24;56.05;96915.78;5056839;28;20037;-80
2022/01/16 07:24:55;;;;;;;8.30;4.90;;;;;;;-10.23;55.59;96901.97;5073327;28;20511;-81
2022/01/16 07:27:21;;;;;;;14.70;7.68;;;;;;;-10.09;55.65;96898.88;5056311;28;20091;-80
2022/01/16 07:29:47;;;;;;;12.45;6.15;;;;;;;-9.96;55.48;96894.97;5040078;28;20055;-82
2022/01/16 07:32:13;;;;;;;9.80;5.82;;;;;;;-10.09;54.72;96904.91;5057058;28;20040;-79
2022/01/16 07:34:40;;;;;;;11.60;6.85;;;;;;;-10.16;55.30;96893.09;5040250;28;20041;-78
2022/01/16 07:37:06;;;;;;;11.60;6.53;;;;;;;-10.14;55.85;96880.16;5073469;28;20048;-78
2022/01/16 07:39:31;;;;;;;11.63;5.70;;;;;;;-10.00;55.16;96887.34;5040589;28;20047;-83
2022/01/16 07:41:58;;;;;;;10.05;5.20;;;;;;;-9.95;55.34;96895.81;5022681;28;20054;-78
2022/01/16 07:44:24;;;;;;;12.38;5.90;;;;;;;-9.75;55.33;96898.47;5073194;28;20059;-83
2022/01/16 07:46:50;;;;;;;9.63;4.95;;;;;;;-9.84;54.12;96909.16;5048397;28;20044;-82
2022/01/16 07:49:16;;;;;;;12.40;6.75;;;;;;;-10.04;54.88;96913.34;5063346;28;20076;-83
2022/01/16 07:51:42;;;;;;;11.73;6.45;;;;;;;-9.78;54.93;96916.66;5059911;28;20079;-81
2022/01/16 07:54:08;;;;;;;12.68;7.32;;;;;;;-9.54;54.97;96913.16;5014492;28;20041;-81
2022/01/16 07:56:35;;;;;;;14.05;6.85;;;;;;;-9.28;54.66;96929.38;5030107;28;20036;-83
2022/01/16 07:59:01;;;;;;;13.45;6.60;;;;;;;-8.85;57.86;96927.63;5065044;28;20064;-82
2022/01/16 08:01:28;;;;;;;10.57;6.60;;;;;;;-9.02;53.72;96925.75;5083581;28;20052;-84
2022/01/16 08:03:54;;;;;;;22.85;6.72;;;;;;;-9.02;54.17;96930.09;5059883;28;20041;-84
2022/01/16 08:06:20;;;;;;;13.98;6.68;;;;;;;-9.15;53.56;96940.09;5057171;28;20047;-88
2022/01/16 08:08:46;;;;;;;10.50;5.53;;;;;;;-9.13;53.20;96948.63;5008174;28;20040;-90
2022/01/16 08:11:12;;;;;;;16.35;7.65;;;;;;;-9.26;53.17;96942.25;5056291;28;20079;-85
2022/01/16 08:13:39;;;;;;;16.23;7.35;;;;;;;-9.41;53.52;96938.53;5024237;28;20127;-84
2022/01/16 08:16:05;;;;;;;14.73;7.63;;;;;;;-9.40;53.78;96945.38;5056784;28;20089;-84
2022/01/16 08:18:32;;;;;;;15.73;7.38;;;;;;;-9.27;53.87;96949.19;5040206;28;20503;-84
2022/01/16 08:20:58;;;;;;;9.52;5.88;;;;;;;-9.13;53.71;96948.63;5023290;28;20040;-83
2022/01/16 08:23:24;;;;;;;10.15;6.30;;;;;;;-9.21;54.57;96940.31;5007171;28;20041;-84
2022/01/16 08:25:51;;;;;;;13.57;7.03;;;;;;;-9.14;53.77;96945.22;5007622;28;20120;-77
2022/01/16 08:28:17;;;;;;;16.77;7.68;;;;;;;-9.12;54.65;96945.13;5022296;28;20202;-80
2022/01/16 08:30:44;;;;;;;17.50;7.13;;;;;;;-8.59;61.04;96950.69;5022567;28;20076;-79
2022/01/16 08:33:10;;;;;;;14.00;6.90;;;;;;;-8.45;54.27;96941.50;5022874;28;20040;-80
2022/01/16 08:35:36;;;;;;;11.30;6.22;;;;;;;-8.63;53.36;96941.38;5040962;28;20426;-95
2022/01/16 08:38:02;;;;;;;16.30;7.95;;;;;;;-8.72;53.01;96949.53;5022272;28;20507;-85
2022/01/16 08:40:29;;;;;;;16.85;7.80;;;;;;;-8.77;53.33;96955.78;5004743;28;20059;-85
2022/01/16 08:42:55;;;;;;;15.20;6.82;;;;;;;-8.99;52.69;96972.19;5022139;28;20053;-90
2022/01/16 08:45:21;;;;;;;13.65;6.90;;;;;;;-9.07;52.63;96969.91;5038432;28;20048;-92
2022/01/16 08:47:47;;;;;;;13.05;6.28;;;;;;;-9.24;52.93;96967.16;5009541;28;20052;-87
2022/01/16 08:50:14;;;;;;;8.20;5.30;;;;;;;-9.20;55.60;96991.19;4994399;28;20083;-80
2022/01/16 08:52:41;;;;;;;14.65;6.35;;;;;;;-9.62;53.80;96984.16;5077395;28;20075;-81
2022/01/16 08:55:08;;;;;;;16.33;5.60;;;;;;;-9.68;54.32;96998.16;5056762;28;20076;-91
2022/01/16 08:57:34;;;;;;;19.70;7.05;;;;;;;-9.77;54.45;96995.09;5038143;28;20051;-81
2022/01/16 09:00:00;;;;;;;12.15;5.40;;;;;;;-9.96;54.41;97007.81;5057424;28;20047;-90
2022/01/16 09:02:26;;;;;;;15.65;7.05;;;;;;;-10.04;54.63;97001.19;5013603;28;20052;-83
2022/01/16 09:04:52;;;;;;;16.02;7.40;;;;;;;-10.10;55.37;97016.91;5023516;28;20509;-82
2022/01/16 09:07:20;;;;;;;11.80;7.30;;;;;;;-10.04;55.86;97008.06;5058050;28;20035;-83
2022/01/16 09:09:46;;;;;;;28.10;8.13;;;;;;;-10.07;55.68;97021.97;5074787;28;20056;-83
2022/01/16 09:12:12;;;;;;;17.23;7.47;;;;;;;-9.96;56.14;97028.50;5041310;28;20051;-84
2022/01/16 09:14:38;;;;;;;10.20;6.07;;;;;;;-9.93;55.51;97018.03;5042082;28;20063;-85
2022/01/16 09:17:04;;;;;;;11.27;6.60;;;;;;;-9.83;55.31;97020.22;5064277;28;20064;-90
2022/01/16 09:19:30;;;;;;;13.75;7.60;;;;;;;-9.67;55.72;97028.25;5050633;28;20051;-96
2022/01/16 09:21:56;;;;;;;18.67;7.45;;;;;;;-9.66;55.04;97027.38;5030272;28;20104;-94
2022/01/16 09:24:22;;;;;;;14.43;7.40;;;;;;;-9.55;54.82;97043.34;5052943;28;20025;-92
2022/01/16 09:26:50;;;;;;;13.75;6.90;;;;;;;-9.44;55.04;97052.44;5095479;22;20060;-91
2022/01/16 09:29:34;;;;;;;12.40;6.13;;;;;;;-9.43;54.75;97020.53;5148793;27;20389;-91
2022/01/16 09:32:01;;;;;;;13.60;7.20;;;;;;;-9.47;54.51;97031.88;5117484;28;20068;-92
2022/01/16 09:34:27;;;;;;;13.95;7.13;;;;;;;-9.62;54.76;97034.13;5146558;27;20039;-94
2022/01/16 09:36:53;;;;;;;12.15;6.20;;;;;;;-9.64;54.30;97061.78;5142372;27;20061;-92
2022/01/16 09:39:23;;;;;;;19.50;8.50;;;;;;;-9.69;55.16;97042.16;5136176;27;20443;-91
2022/01/16 09:41:49;;;;;;;;;;;;;;;-9.79;55.14;97049.41;5122813;27;20055;-92
2022/01/16 09:44:16;;;;;;;16.45;6.97;;;;;;;-9.76;55.37;97036.38;5146771;27;19916;-89
2022/01/16 09:46:42;;;;;;;12.50;6.68;;;;;;;-9.58;55.48;97051.22;5133565;28;20035;-96
2022/01/16 09:49:08;;;;;;;14.85;7.25;;;;;;;-9.83;54.92;97032.31;5107527;28;20522;-93
2022/01/16 09:51:34;;;;;;;17.83;6.72;;;;;;;-9.74;54.95;97052.69;5096766;28;20051;-95
2022/01/16 09:54:00;;;;;;;15.05;9.00;;;;;;;-9.68;55.48;97060.19;5096044;28;20036;-89
2022/01/16 09:56:26;;;;;;;15.35;6.68;;;;;;;-9.66;54.88;97063.59;5113154;28;20052;-90
2022/01/16 09:58:53;;;;;;;14.07;6.50;;;;;;;-9.65;55.40;97044.59;5130085;27;20128;-91
2022/01/16 10:01:18;;;;;;;12.25;7.00;;;;;;;-9.63;55.34;97042.75;5096980;28;20525;-89
2022/01/16 10:03:46;;;;;;;17.50;8.35;;;;;;;-9.53;55.02;97040.69;5082856;28;20040;-88
2022/01/16 10:06:23;;;;;;;14.48;7.95;;;;;;;-9.28;55.49;97060.50;5095780;28;20474;-90
2022/01/16 10:08:50;;;;;;;12.55;7.10;;;;;;;-9.05;55.50;97053.53;5080058;28;20032;-90
2022/01/16 10:11:35;;;;;;;15.15;7.35;;;;;;;-9.03;54.24;97056.03;5112079;28;20040;-91
2022/01/16 10:14:46;;;;;;;16.73;8.13;;;;;;;-9.11;54.17;97077.03;5078282;28;20036;-89
2022/01/16 10:16:50;;;;;;;14.13;7.95;;;;;;;-9.21;54.64;97080.03;5104254;28;20510;-92
2022/01/16 10:19:22;;;;;;;15.65;8.13;;;;;;;-9.11;54.93;97082.22;5081495;28;20085;-90
2022/01/16 10:21:48;;;;;;;12.75;8.10;;;;;;;-8.89;54.64;97091.75;5110999;28;20052;-90
2022/01/16 10:24:16;;;;;;;13.32;6.40;;;;;;;-8.89;54.61;97084.00;5131801;27;20498;-91
2022/01/16 10:26:42;;;;;;;17.50;9.15;;;;;;;-8.83;54.71;97086.34;5076299;28;20052;-93
2022/01/16 10:29:08;;;;;;;20.95;9.27;;;;;;;-8.85;54.89;97093.31;5061143;28;20466;-88
2022/01/16 10:31:35;;;;;;;12.30;7.97;;;;;;;-8.80;54.76;97093.97;5062641;28;20051;-92
2022/01/16 10:34:01;;;;;;;15.10;8.05;;;;;;;-8.96;55.12;97090.31;5064896;28;20048;-92
2022/01/16 10:36:32;;;;;;;24.02;9.93;;;;;;;-8.90;55.00;97097.84;5099243;28;20048;-91
2022/01/16 10:39:11;;;;;;;17.38;8.98;;;;;;;-9.10;55.59;97077.88;5052174;28;20104;-88
2022/01/16 10:41:37;;;;;;;21.67;8.65;;;;;;;-9.19;55.98;97091.19;5036677;28;20124;-95
2022/01/16 10:44:03;;;;;;;19.45;9.45;;;;;;;-9.35;56.57;97086.56;5048656;28;20511;-93
2022/01/16 10:46:30;;;;;;;18.58;7.82;;;;;;;-9.39;56.64;97077.25;5082170;28;20104;-93
2022/01/16 10:49:15;;;;;;;21.27;9.18;;;;;;;-9.62;57.79;97075.50;5039308;28;20417;-90
2022/01/16 10:51:42;;;;;;;15.75;8.32;;;;;;;-9.73;57.86;97081.97;5099958;28;20053;-92
2022/01/16 10:54:31;;;;;;;17.42;7.88;;;;;;;-9.77;58.40;97091.56;5032351;28;20414;-90
2022/01/16 10:56:57;;;;;;;19.00;7.43;;;;;;;-9.76;58.38;97095.00;5060895;28;20083;-92
2022/01/16 10:59:24;;;;;;;11.90;6.90;;;;;;;-9.86;58.58;97094.44;5061889;28;20040;-88
2022/01/16 11:02:08;;;;;;;16.52;7.60;;;;;;;-9.97;59.27;97097.41;5050316;28;20036;-94
2022/01/16 11:04:34;;;;;;;17.40;7.60;;;;;;;-9.93;59.08;97100.72;5027921;28;20047;-90
2022/01/16 11:07:04;;;;;;;18.00;8.50;;;;;;;-10.03;59.54;97103.63;5061199;28;20062;-93
2022/01/16 11:09:31;;;;;;;17.80;7.88;;;;;;;-10.00;59.71;97109.59;5066553;28;20054;-90
2022/01/16 11:12:00;;;;;;;13.18;7.22;;;;;;;-10.15;59.63;97101.47;5048134;28;20047;-95
2022/01/16 11:14:27;;;;;;;15.85;7.57;;;;;;;-10.31;59.85;97106.31;5057292;28;20044;-96
2022/01/16 11:16:57;;;;;;;16.73;6.57;;;;;;;-10.39;60.38;97122.97;5031547;28;20041;-96
2022/01/16 11:19:24;;;;;;;12.25;7.40;;;;;;;-10.58;60.89;97114.97;5034172;28;20029;-94
2022/01/16 11:21:53;;;;;;;22.52;9.15;;;;;;;-10.52;61.02;97133.69;5077890;28;20146;-95
2022/01/16 11:24:33;;;;;;;19.08;9.35;;;;;;;-10.45;61.16;97143.84;5044726;28;20054;-94
2022/01/16 11:27:00;;;;;;;17.65;7.97;;;;;;;-10.30;60.84;97151.09;5062579;28;20425;-93
2022/01/16 11:29:28;;;;;;;19.58;7.82;;;;;;;-10.37;60.72;97158.19;5060811;28;20061;-91
2022/01/16 11:31:55;;;;;;;19.08;8.88;;;;;;;-10.38;60.63;97160.81;5058327;28;20121;-92
2022/01/16 11:34:21;;;;;;;20.02;7.80;;;;;;;-10.36;61.07;97159.88;5087035;28;20174;-96
2022/01/16 11:36:47;;;;;;;15.73;7.22;;;;;;;-10.49;61.08;97156.00;5068853;28;20126;-96
2022/01/16 11:39:13;;;;;;;10.98;6.43;;;;;;;-10.52;61.01;97169.84;5063068;28;20127;-95
2022/01/16 11:41:51;;;;;;;18.10;8.85;;;;;;;-10.63;61.07;97161.59;5071759;28;20047;-94
2022/01/16 11:44:25;;;;;;;20.30;10.63;;;;;;;-10.66;61.27;97166.84;5070792;28;20037;-95
2022/01/16 11:46:51;;;;;;;18.30;8.90;;;;;;;-10.70;61.24;97170.41;5068225;28;20399;-93
2022/01/16 11:49:19;;;;;;;17.55;7.93;;;;;;;-10.73;60.88;97174.81;5080031;28;20052;-94
2022/01/16 11:51:51;;;;;;;21.17;8.50;;;;;;;-10.75;62.39;97172.28;5060485;28;20044;-86
2022/01/16 11:54:27;;;;;;;15.10;7.63;;;;;;;-10.75;61.58;97187.78;5073006;28;20522;-84
2022/01/16 11:56:57;;;;;;;25.02;9.23;;;;;;;-10.91;61.70;97189.09;5057757;28;20048;-87
2022/01/16 11:59:28;;;;;;;21.63;9.88;;;;;;;-10.83;64.10;97184.56;5079016;28;20040;-84
2022/01/16 12:01:55;;;;;;;21.80;10.43;;;;;;;-10.83;62.09;97193.16;5093016;28;20051;-86
2022/01/16 12:04:30;;;;;;;17.10;8.77;;;;;;;-11.05;61.68;97184.38;5073007;28;20048;-88
2022/01/16 12:07:12;;;;;;;14.10;7.68;;;;;;;-11.14;61.90;97167.38;5082886;28;20143;-84